Time;durP1;ratioP1;P1;durP2;ratioP2;P2;SDS_P1;SDS_P2;PMS_P1;PMS_P2;Temp;Humidity;BMP_temperature;BMP_pressure;BME280_temperature;BME280_humidity;BME280_pressure;Samples;Min_cycle;Max_cycle;Signal;HPM_P1;HPM_P2
2022/11/23 00:00:27;;;;;;;1.73;1.20;;;12.20;77.00;;;;;;5018000;28;20033;-80
2022/11/23 00:02:56;;;;;;;2.10;1.20;;;12.30;77.10;;;;;;5010160;28;20018;-80
2022/11/23 00:05:23;;;;;;;2.05;1.10;;;12.20;77.10;;;;;;5026100;28;20032;-80
2022/11/23 00:07:48;;;;;;;2.17;1.30;;;12.20;77.30;;;;;;5000953;28;20040;-81
2022/11/23 00:10:14;;;;;;;2.55;1.10;;;12.20;77.40;;;;;;5028132;28;20456;-80
2022/11/23 00:12:40;;;;;;;2.42;1.23;;;12.20;77.40;;;;;;5032734;28;20065;-80
2022/11/23 00:15:06;;;;;;;2.45;1.27;;;12.20;77.50;;;;;;5014612;28;20128;-79
2022/11/23 00:17:32;;;;;;;1.95;1.30;;;12.20;77.50;;;;;;5032332;28;20610;-79
2022/11/23 00:19:58;;;;;;;2.15;1.30;;;12.20;77.50;;;;;;5032746;28;20025;-80
2022/11/23 00:22:24;;;;;;;1.60;1.02;;;12.10;77.50;;;;;;5034416;28;20498;-80
2022/11/23 00:24:49;;;;;;;1.27;0.90;;;12.20;77.60;;;;;;5034496;28;20021;-80
2022/11/23 00:27:15;;;;;;;2.22;1.30;;;12.10;77.80;;;;;;5016330;28;20024;-80
2022/11/23 00:29:40;;;;;;;2.03;1.05;;;12.10;77.60;;;;;;5036419;28;20021;-80
2022/11/23 00:32:06;;;;;;;3.10;1.00;;;12.10;77.70;;;;;;5005242;28;20026;-80
2022/11/23 00:34:31;;;;;;;1.77;1.10;;;12.10;77.70;;;;;;4999965;28;20041;-80
2022/11/23 00:36:57;;;;;;;1.67;1.00;;;12.10;77.80;;;;;;5014913;28;20048;-80
2022/11/23 00:39:22;;;;;;;1.85;1.20;;;12.10;77.90;;;;;;4999265;28;20478;-80
2022/11/23 00:41:48;;;;;;;2.33;1.20;;;12.10;77.80;;;;;;5027082;28;20465;-80
2022/11/23 00:44:13;;;;;;;2.65;1.15;;;12.10;77.70;;;;;;5025094;28;20025;-81
2022/11/23 00:46:39;;;;;;;2.53;1.27;;;12.10;77.90;;;;;;5033721;28;20469;-81
2022/11/23 00:49:05;;;;;;;2.20;0.90;;;12.10;77.90;;;;;;5004523;28;20101;-77
2022/11/23 00:51:34;;;;;;;1.30;1.00;;;12.10;77.80;;;;;;5004356;28;20024;-79
2022/11/23 00:54:01;;;;;;;2.20;1.08;;;12.10;77.90;;;;;;5025812;28;20032;-80
2022/11/23 00:56:28;;;;;;;2.25;1.00;;;12.10;77.90;;;;;;5029441;28;20087;-80
2022/11/23 00:58:55;;;;;;;2.05;1.33;;;12.10;78.00;;;;;;5018968;28;20029;-80
2022/11/23 01:01:23;;;;;;;2.75;1.35;;;12.10;78.00;;;;;;5017916;28;20034;-79
2022/11/23 01:03:52;;;;;;;2.80;1.17;;;12.10;78.00;;;;;;5036295;28;20025;-80
2022/11/23 01:06:23;;;;;;;1.30;1.00;;;12.10;78.00;;;;;;5036529;28;20037;-80
2022/11/23 01:08:54;;;;;;;1.63;1.00;;;12.10;78.10;;;;;;5037011;28;20021;-80
2022/11/23 01:11:20;;;;;;;2.65;1.20;;;12.10;78.20;;;;;;5003593;28;20026;-77
2022/11/23 01:13:46;;;;;;;2.05;1.20;;;12.10;78.20;;;;;;5020561;28;20091;-80
2022/11/23 01:16:20;;;;;;;1.88;0.98;;;12.10;78.10;;;;;;5023523;28;20665;-80
2022/11/23 01:18:46;;;;;;;2.15;1.20;;;12.10;78.10;;;;;;5023134;28;20029;-80
2022/11/23 01:21:12;;;;;;;1.40;1.00;;;12.10;78.20;;;;;;5026502;28;20069;-80
2022/11/23 01:23:38;;;;;;;1.65;1.00;;;12.10;78.20;;;;;;4998626;28;20593;-79
2022/11/23 01:26:08;;;;;;;2.78;1.30;;;12.10;78.10;;;;;;5018948;28;20030;-79
2022/11/23 01:28:33;;;;;;;1.63;1.00;;;12.10;78.10;;;;;;5014202;28;20037;-79
2022/11/23 01:31:08;;;;;;;2.47;1.30;;;12.10;78.20;;;;;;5018662;28;20026;-80
2022/11/23 01:33:35;;;;;;;1.20;0.90;;;12.00;78.10;;;;;;4998621;28;20060;-80
2022/11/23 01:36:07;;;;;;;1.65;1.00;;;12.10;78.30;;;;;;5028732;28;20048;-80
2022/11/23 01:38:32;;;;;;;1.90;1.00;;;12.10;78.30;;;;;;5018283;28;20481;-80
2022/11/23 01:40:58;;;;;;;2.28;0.90;;;12.10;78.10;;;;;;5020880;28;20038;-80
2022/11/23 01:43:23;;;;;;;2.22;1.30;;;12.10;78.00;;;;;;5019111;28;20021;-80
2022/11/23 01:45:54;;;;;;;2.20;1.00;;;12.10;78.00;;;;;;5017228;28;20516;-80
2022/11/23 01:48:45;;;;;;;2.30;1.02;;;12.20;77.90;;;;;;5024224;28;20088;-81
2022/11/23 01:51:13;;;;;;;;;;;12.20;77.90;;;;;;4990667;28;20073;-82
2022/11/23 01:53:40;;;;;;;2.22;1.13;;;12.20;77.80;;;;;;5004667;28;19917;-82
2022/11/23 01:56:07;;;;;;;1.40;0.90;;;12.20;77.80;;;;;;5003085;28;20094;-80
2022/11/23 01:58:38;;;;;;;2.50;1.08;;;12.20;77.90;;;;;;5001485;28;20030;-81
2022/11/23 02:01:05;;;;;;;1.42;1.00;;;12.20;77.90;;;;;;5005372;28;20121;-81
2022/11/23 02:03:32;;;;;;;2.70;1.10;;;12.20;78.10;;;;;;5002791;28;20026;-81
2022/11/23 02:06:01;;;;;;;2.40;1.00;;;12.10;78.00;;;;;;5031972;28;20017;-81
2022/11/23 02:08:28;;;;;;;1.20;0.90;;;12.10;78.00;;;;;;5017049;28;20026;-81
2022/11/23 02:10:56;;;;;;;1.70;1.15;;;12.10;78.20;;;;;;5001945;28;20034;-81
2022/11/23 02:13:22;;;;;;;1.63;1.10;;;12.10;78.70;;;;;;5018974;28;20036;-80
2022/11/23 02:15:47;;;;;;;1.60;1.08;;;12.10;78.20;;;;;;5022510;28;20402;-81
2022/11/23 02:18:17;;;;;;;2.00;0.90;;;12.10;78.40;;;;;;5014571;28;20037;-81
2022/11/23 02:20:44;;;;;;;3.17;1.10;;;12.10;78.40;;;;;;5018791;28;20079;-81
2022/11/23 02:23:23;;;;;;;1.23;0.98;;;12.10;78.30;;;;;;5019115;28;20559;-82
2022/11/23 02:26:06;;;;;;;2.17;1.10;;;12.10;78.30;;;;;;5035422;28;20404;-82
2022/11/23 02:28:43;;;;;;;2.05;1.00;;;12.10;78.40;;;;;;5010408;28;20026;-81
2022/11/23 02:31:08;;;;;;;2.08;1.10;;;12.10;78.40;;;;;;5013810;28;20050;-82
2022/11/23 02:33:39;;;;;;;1.58;1.02;;;12.00;78.40;;;;;;5000206;28;20072;-81
2022/11/23 02:36:43;;;;;;;1.50;0.80;;;12.10;78.50;;;;;;4997078;28;20025;-82
2022/11/23 02:39:10;;;;;;;1.50;1.00;;;12.10;78.50;;;;;;5034024;28;20034;-82
2022/11/23 02:41:42;;;;;;;1.65;1.00;;;12.10;78.40;;;;;;5001529;28;20044;-81
2022/11/23 02:45:03;;;;;;;1.45;1.00;;;12.10;78.50;;;;;;5014201;28;20029;-83
2022/11/23 02:47:28;;;;;;;1.83;1.02;;;12.00;78.40;;;;;;4954550;29;20155;-81
2022/11/23 02:49:54;;;;;;;2.15;1.00;;;12.00;78.40;;;;;;4954600;29;20396;-81
2022/11/23 02:52:20;;;;;;;2.72;1.00;;;12.10;78.50;;;;;;4992390;28;20137;-81
2022/11/23 02:54:45;;;;;;;1.63;0.90;;;12.00;78.40;;;;;;5018788;28;20079;-80
2022/11/23 02:57:11;;;;;;;1.55;1.05;;;12.00;78.50;;;;;;5033140;28;20487;-80
2022/11/23 02:59:37;;;;;;;1.02;0.90;;;12.10;78.60;;;;;;5036119;28;20029;-81
2022/11/23 03:02:04;;;;;;;1.92;1.17;;;12.00;78.60;;;;;;5019613;28;20116;-81
2022/11/23 03:04:30;;;;;;;2.35;1.10;;;12.10;78.60;;;;;;5037321;28;20036;-81
2022/11/23 03:06:56;;;;;;;2.55;1.10;;;12.10;78.60;;;;;;5037037;28;20032;-81
2022/11/23 03:09:22;;;;;;;2.15;0.93;;;12.10;78.60;;;;;;5035924;28;20018;-80
2022/11/23 03:11:48;;;;;;;2.30;0.90;;;12.00;78.60;;;;;;5017286;28;20033;-81
2022/11/23 03:14:15;;;;;;;1.92;1.00;;;12.00;78.60;;;;;;5006690;28;20032;-81
2022/11/23 03:16:40;;;;;;;1.95;1.00;;;12.10;78.70;;;;;;5016545;28;20030;-81
2022/11/23 03:19:06;;;;;;;3.25;1.10;;;12.00;78.60;;;;;;5016514;28;20033;-81
2022/11/23 03:21:31;;;;;;;2.20;1.20;;;12.00;78.70;;;;;;4998285;28;20049;-81
2022/11/23 03:23:57;;;;;;;2.22;1.00;;;12.00;78.70;;;;;;5007793;28;20049;-82
2022/11/23 03:26:23;;;;;;;1.40;0.90;;;12.10;78.60;;;;;;5018081;28;20477;-81
2022/11/23 03:28:48;;;;;;;2.30;1.10;;;12.00;78.70;;;;;;5035740;28;20025;-80
2022/11/23 03:31:14;;;;;;;2.25;1.02;;;12.00;78.60;;;;;;5008280;28;20026;-80
2022/11/23 03:33:39;;;;;;;3.38;1.00;;;12.10;78.60;;;;;;5015312;28;20026;-80
2022/11/23 03:36:05;;;;;;;1.38;0.90;;;12.10;78.50;;;;;;4995879;28;20029;-81
2022/11/23 03:38:31;;;;;;;2.63;1.15;;;12.10;78.30;;;;;;4996204;28;20429;-80
2022/11/23 03:40:56;;;;;;;2.80;1.20;;;12.10;78.40;;;;;;4996685;28;20026;-80
2022/11/23 03:43:22;;;;;;;1.30;0.85;;;12.10;78.20;;;;;;5015904;28;20037;-78
2022/11/23 03:45:48;;;;;;;2.13;1.00;;;12.10;78.20;;;;;;4997624;28;20026;-78
2022/11/23 03:48:14;;;;;;;2.22;1.00;;;12.20;78.20;;;;;;4996347;28;20022;-79
2022/11/23 03:50:39;;;;;;;3.00;1.08;;;12.20;78.30;;;;;;5014290;28;20033;-79
2022/11/23 03:53:05;;;;;;;1.88;0.80;;;12.20;78.40;;;;;;4997215;28;20025;-79
2022/11/23 03:55:32;;;;;;;1.17;0.90;;;12.10;78.40;;;;;;4995970;28;20041;-78
2022/11/23 03:57:58;;;;;;;3.00;0.90;;;12.10;78.40;;;;;;5013805;28;20499;-79
2022/11/23 04:00:28;;;;;;;2.42;1.00;;;12.10;78.50;;;;;;5014495;28;20076;-80
2022/11/23 04:02:54;;;;;;;1.65;0.90;;;12.10;78.60;;;;;;5014121;28;20118;-80
2022/11/23 04:05:19;;;;;;;2.13;1.00;;;12.10;78.70;;;;;;4996049;28;20113;-79
2022/11/23 04:07:46;;;;;;;1.20;0.88;;;12.10;78.80;;;;;;4996277;28;20022;-78
2022/11/23 04:10:14;;;;;;;2.20;0.95;;;12.00;78.80;;;;;;5008248;28;20037;-80
2022/11/23 04:12:39;;;;;;;1.95;0.90;;;12.10;78.80;;;;;;5033844;28;20083;-80
2022/11/23 04:15:06;;;;;;;1.42;0.85;;;12.00;78.80;;;;;;5016019;28;20029;-80
2022/11/23 04:17:31;;;;;;;1.73;0.90;;;12.10;78.90;;;;;;5015791;28;20116;-79
2022/11/23 04:19:57;;;;;;;2.30;0.88;;;12.00;78.90;;;;;;5033493;28;20080;-78
2022/11/23 04:22:22;;;;;;;1.75;1.05;;;12.10;79.00;;;;;;5033939;28;20021;-81
2022/11/23 04:24:48;;;;;;;1.25;0.85;;;12.10;79.00;;;;;;5033761;28;20032;-78
2022/11/23 04:27:13;;;;;;;1.50;0.90;;;12.00;78.90;;;;;;5015806;28;20047;-79
2022/11/23 04:29:39;;;;;;;1.50;1.00;;;12.00;79.00;;;;;;5015877;28;20374;-79
2022/11/23 04:32:04;;;;;;;2.85;1.10;;;12.00;79.00;;;;;;5015702;28;20529;-79
2022/11/23 04:34:30;;;;;;;1.45;1.00;;;12.00;79.00;;;;;;5017283;28;20129;-80
2022/11/23 04:36:55;;;;;;;1.40;0.98;;;12.00;79.00;;;;;;5017740;28;20049;-80
2022/11/23 04:39:21;;;;;;;1.38;0.80;;;12.00;79.00;;;;;;5013275;28;20029;-82
2022/11/23 04:41:46;;;;;;;1.50;0.90;;;12.00;79.00;;;;;;4997747;28;20062;-80
2022/11/23 04:44:12;;;;;;;2.83;1.30;;;12.00;79.00;;;;;;5033187;28;20105;-80
2022/11/23 04:46:37;;;;;;;1.70;0.85;;;12.00;79.10;;;;;;5022426;28;20037;-79
2022/11/23 04:49:03;;;;;;;1.02;0.80;;;12.00;79.10;;;;;;4997252;28;20028;-78
2022/11/23 04:51:28;;;;;;;1.17;0.82;;;12.00;79.10;;;;;;5014761;28;20498;-80
2022/11/23 04:53:54;;;;;;;1.55;0.85;;;12.00;79.10;;;;;;5020688;28;20033;-79
2022/11/23 04:56:19;;;;;;;1.58;0.80;;;12.00;79.10;;;;;;5016828;28;20065;-79
2022/11/23 04:58:45;;;;;;;1.90;1.10;;;12.00;79.10;;;;;;5016857;28;20501;-79
2022/11/23 05:01:10;;;;;;;1.00;0.80;;;12.00;79.10;;;;;;5011867;28;20033;-79
2022/11/23 05:03:36;;;;;;;2.22;1.20;;;12.00;79.10;;;;;;5033834;28;20033;-78
2022/11/23 05:06:03;;;;;;;1.60;0.90;;;12.00;79.10;;;;;;5016364;28;20026;-79
2022/11/23 05:08:30;;;;;;;2.70;1.00;;;11.90;79.10;;;;;;5024759;28;20036;-79
2022/11/23 05:10:56;;;;;;;2.05;0.93;;;12.00;79.10;;;;;;4995813;28;20512;-80
2022/11/23 05:13:22;;;;;;;1.15;0.90;;;12.00;79.10;;;;;;4996509;28;20038;-80
2022/11/23 05:15:47;;;;;;;2.08;0.90;;;12.00;79.10;;;;;;4998277;28;20041;-80
2022/11/23 05:18:13;;;;;;;1.65;0.93;;;12.00;79.10;;;;;;4999316;28;20034;-76
2022/11/23 05:20:39;;;;;;;1.80;0.90;;;12.00;79.10;;;;;;5018824;28;20566;-76
2022/11/23 05:23:05;;;;;;;1.77;0.90;;;12.00;79.10;;;;;;5005383;28;20076;-73
2022/11/23 05:25:30;;;;;;;1.15;0.90;;;12.00;79.10;;;;;;5017299;28;20398;-71
2022/11/23 05:27:56;;;;;;;1.70;1.02;;;12.00;79.10;;;;;;5004363;28;20386;-73
2022/11/23 05:30:22;;;;;;;1.98;1.00;;;12.10;79.00;;;;;;5013269;28;20037;-74
2022/11/23 05:32:48;;;;;;;2.28;1.40;;;12.00;78.90;;;;;;5033135;28;20459;-77
2022/11/23 05:35:13;;;;;;;1.88;1.00;;;12.10;78.80;;;;;;5008158;28;20048;-79
2022/11/23 05:37:40;;;;;;;1.95;0.90;;;12.10;78.80;;;;;;5014879;28;20033;-76
2022/11/23 05:40:06;;;;;;;2.65;0.90;;;12.10;78.60;;;;;;5020681;28;20033;-80
2022/11/23 05:42:32;;;;;;;2.58;1.02;;;12.10;78.50;;;;;;5012735;28;20026;-77
2022/11/23 05:44:58;;;;;;;1.40;0.88;;;12.10;78.60;;;;;;5009828;28;20021;-77
2022/11/23 05:47:23;;;;;;;2.03;1.10;;;12.10;78.50;;;;;;5033581;28;20024;-79
2022/11/23 05:49:49;;;;;;;3.03;0.90;;;12.10;78.60;;;;;;5017652;28;20568;-78
2022/11/23 05:52:16;;;;;;;1.08;0.80;;;12.10;78.70;;;;;;5035352;28;20037;-79
2022/11/23 05:54:41;;;;;;;1.90;0.90;;;12.10;78.70;;;;;;5021536;28;20041;-74
2022/11/23 05:57:07;;;;;;;1.92;0.90;;;12.10;78.90;;;;;;5014726;28;20034;-78
2022/11/23 05:59:33;;;;;;;1.30;0.88;;;12.10;78.90;;;;;;5015163;28;20030;-73
2022/11/23 06:01:58;;;;;;;1.45;1.00;;;12.00;78.90;;;;;;5014226;28;20037;-78
2022/11/23 06:04:24;;;;;;;1.73;0.82;;;12.10;79.00;;;;;;5005238;28;20389;-77
2022/11/23 06:06:49;;;;;;;1.50;0.85;;;12.00;79.10;;;;;;5016572;28;20064;-78
2022/11/23 06:09:15;;;;;;;0.95;0.80;;;12.00;79.10;;;;;;5033849;28;20039;-77
2022/11/23 06:11:40;;;;;;;1.83;0.93;;;12.00;79.10;;;;;;5015363;28;20029;-75
2022/11/23 06:14:06;;;;;;;2.53;0.90;;;12.00;79.20;;;;;;5014244;28;20037;-77
2022/11/23 06:16:32;;;;;;;2.20;0.90;;;12.00;79.20;;;;;;4999281;28;20032;-76
2022/11/23 06:18:57;;;;;;;1.42;0.90;;;12.00;79.20;;;;;;5011110;28;20036;-78
2022/11/23 06:21:23;;;;;;;2.97;1.20;;;12.00;79.20;;;;;;5017077;28;20049;-76
2022/11/23 06:23:48;;;;;;;3.05;1.00;;;12.00;79.30;;;;;;5000604;28;20061;-76
2022/11/23 06:26:14;;;;;;;1.77;0.90;;;11.90;79.20;;;;;;5008839;28;20112;-78
2022/11/23 06:28:40;;;;;;;2.60;0.90;;;12.00;79.30;;;;;;5015159;28;20076;-78
2022/11/23 06:31:06;;;;;;;1.80;1.00;;;12.00;79.30;;;;;;5011052;28;20026;-79
2022/11/23 06:33:33;;;;;;;2.58;1.00;;;12.00;79.30;;;;;;5014115;28;20054;-79
2022/11/23 06:36:01;;;;;;;1.65;0.90;;;12.00;79.30;;;;;;4995694;28;20093;-80
2022/11/23 06:38:27;;;;;;;1.05;0.80;;;12.00;79.30;;;;;;4995512;28;20025;-79
2022/11/23 06:40:56;;;;;;;1.23;0.90;;;12.00;79.40;;;;;;5026864;28;20036;-78
2022/11/23 06:43:22;;;;;;;2.15;0.93;;;12.00;79.30;;;;;;5015417;28;20026;-78
2022/11/23 06:45:47;;;;;;;1.80;0.98;;;12.00;79.30;;;;;;5008091;28;20026;-80
2022/11/23 06:48:13;;;;;;;1.45;0.90;;;12.00;79.40;;;;;;5012494;28;20026;-80
2022/11/23 06:50:38;;;;;;;1.75;0.80;;;12.00;79.40;;;;;;5012901;28;20457;-79
2022/11/23 06:53:04;;;;;;;1.58;1.10;;;12.00;79.40;;;;;;4996074;28;20068;-80
2022/11/23 06:55:29;;;;;;;2.03;1.00;;;12.00;79.40;;;;;;5012932;28;20021;-79
2022/11/23 06:57:56;;;;;;;2.17;0.80;;;12.00;79.40;;;;;;4995662;28;20060;-79
2022/11/23 07:00:22;;;;;;;3.08;0.90;;;12.00;79.40;;;;;;5025630;28;20036;-79
2022/11/23 07:02:52;;;;;;;1.63;0.93;;;12.00;79.40;;;;;;5014213;28;20116;-80
2022/11/23 07:05:18;;;;;;;0.98;0.80;;;12.00;79.40;;;;;;5014534;28;20022;-78
2022/11/23 07:07:43;;;;;;;2.13;1.00;;;12.00;79.40;;;;;;5014976;28;20033;-75
2022/11/23 07:10:09;;;;;;;1.88;0.88;;;12.00;79.40;;;;;;5020825;28;20033;-77
2022/11/23 07:12:35;;;;;;;1.23;0.80;;;12.00;79.40;;;;;;4999748;28;20120;-79
2022/11/23 07:15:01;;;;;;;2.13;0.90;;;12.00;79.40;;;;;;5017462;28;20036;-79
2022/11/23 07:17:26;;;;;;;1.38;0.98;;;12.00;79.40;;;;;;5000941;28;20049;-78
2022/11/23 07:19:52;;;;;;;2.47;1.00;;;12.00;79.40;;;;;;5013339;28;20025;-78
2022/11/23 07:22:17;;;;;;;1.75;0.90;;;12.00;79.40;;;;;;4996012;28;20029;-78
2022/11/23 07:24:43;;;;;;;2.55;1.10;;;12.00;79.30;;;;;;5012468;28;20033;-78
2022/11/23 07:27:08;;;;;;;1.80;1.00;;;12.00;79.30;;;;;;4994244;28;20036;-77
2022/11/23 07:29:34;;;;;;;2.83;1.10;;;12.00;79.20;;;;;;5011337;28;20029;-79
2022/11/23 07:31:59;;;;;;;2.88;1.13;;;12.00;79.10;;;;;;5028717;28;20061;-82
2022/11/23 07:34:27;;;;;;;2.25;1.00;;;12.00;79.00;;;;;;5025240;28;20026;-84
2022/11/23 07:36:53;;;;;;;1.95;1.00;;;12.10;79.00;;;;;;5013864;28;20045;-79
2022/11/23 07:39:18;;;;;;;1.33;0.85;;;12.10;78.90;;;;;;5010926;28;20064;-77
2022/11/23 07:41:44;;;;;;;1.48;0.90;;;12.10;78.90;;;;;;5029750;28;20043;-79
2022/11/23 07:44:09;;;;;;;1.38;0.73;;;12.10;78.90;;;;;;5026884;28;20439;-79
2022/11/23 07:46:35;;;;;;;3.53;1.55;;;12.10;79.00;;;;;;5023171;28;20489;-79
2022/11/23 07:49:01;;;;;;;3.50;1.15;;;12.00;79.00;;;;;;5030085;28;20140;-79
2022/11/23 07:51:27;;;;;;;1.92;1.10;;;12.00;79.00;;;;;;5031718;28;20034;-79
2022/11/23 07:53:53;;;;;;;2.15;0.90;;;12.00;79.10;;;;;;5030057;28;20033;-79
2022/11/23 07:56:18;;;;;;;1.73;0.88;;;12.00;79.20;;;;;;5013610;28;20033;-78
2022/11/23 07:58:44;;;;;;;0.98;0.88;;;12.00;79.30;;;;;;4994238;28;20049;-79
2022/11/23 08:01:16;;;;;;;1.50;0.90;;;12.00;79.30;;;;;;5012973;28;20540;-79
2022/11/23 08:03:42;;;;;;;2.50;1.00;;;12.00;79.30;;;;;;4998199;28;20025;-83
2022/11/23 08:06:12;;;;;;;2.65;0.95;;;12.00;79.30;;;;;;5013376;28;20022;-81
2022/11/23 08:08:38;;;;;;;3.95;1.08;;;12.00;79.80;;;;;;4997884;28;20026;-78
2022/11/23 08:11:05;;;;;;;2.22;1.00;;;12.00;79.20;;;;;;4997318;28;20623;-78
2022/11/23 08:13:31;;;;;;;3.55;1.08;;;12.00;79.20;;;;;;5003871;28;20037;-76
2022/11/23 08:15:56;;;;;;;5.28;1.15;;;12.00;79.10;;;;;;5002180;28;20030;-80
2022/11/23 08:18:25;;;;;;;2.97;1.10;;;12.00;79.10;;;;;;5013156;28;20437;-78
2022/11/23 08:20:51;;;;;;;2.88;1.00;;;12.00;79.70;;;;;;5015725;28;20416;-78
2022/11/23 08:23:17;;;;;;;2.80;1.10;;;12.00;79.10;;;;;;5031559;28;20495;-76
2022/11/23 08:25:43;;;;;;;2.97;1.10;;;12.00;79.10;;;;;;4998601;28;20116;-78
2022/11/23 08:28:09;;;;;;;3.38;1.17;;;11.90;79.10;;;;;;4993652;28;20113;-78
2022/11/23 08:30:35;;;;;;;3.25;1.20;;;12.00;79.10;;;;;;5013143;28;20022;-78
2022/11/23 08:33:05;;;;;;;3.70;1.20;;;12.00;79.10;;;;;;5017154;28;20034;-78
2022/11/23 08:35:35;;;;;;;2.83;1.10;;;12.00;79.10;;;;;;5020544;28;20029;-78
2022/11/23 08:38:01;;;;;;;4.05;1.60;;;12.00;79.10;;;;;;5002962;28;20018;-79
2022/11/23 08:40:27;;;;;;;3.10;1.20;;;12.00;79.10;;;;;;5010864;28;20057;-77
2022/11/23 08:42:53;;;;;;;2.20;1.20;;;12.00;79.10;;;;;;5012041;28;20062;-78
2022/11/23 08:45:19;;;;;;;4.30;1.33;;;12.00;79.00;;;;;;5031477;28;20051;-78
2022/11/23 08:47:44;;;;;;;1.85;1.08;;;12.00;79.00;;;;;;5031869;28;20077;-77
2022/11/23 08:50:10;;;;;;;3.55;1.00;;;12.00;79.00;;;;;;5031010;28;20804;-78
2022/11/23 08:52:35;;;;;;;3.45;0.98;;;12.00;79.00;;;;;;5024192;28;20032;-78
2022/11/23 08:55:01;;;;;;;2.72;1.00;;;12.00;79.00;;;;;;5035382;28;20039;-80
2022/11/23 08:57:27;;;;;;;3.63;1.05;;;12.00;79.00;;;;;;5020288;28;20030;-80
2022/11/23 08:59:53;;;;;;;2.53;1.10;;;12.00;79.00;;;;;;5009659;28;20078;-80
2022/11/23 09:02:18;;;;;;;2.28;1.00;;;12.00;79.00;;;;;;5015721;28;20034;-78
2022/11/23 09:04:44;;;;;;;2.97;1.05;;;12.00;79.00;;;;;;5026174;28;20029;-78
2022/11/23 09:07:09;;;;;;;2.22;1.02;;;12.00;79.00;;;;;;5028333;28;20428;-79
2022/11/23 09:09:35;;;;;;;4.35;1.20;;;12.00;79.00;;;;;;5012151;28;20029;-77
2022/11/23 09:12:00;;;;;;;3.03;1.00;;;12.00;78.90;;;;;;5009482;28;20069;-79
2022/11/23 09:14:26;;;;;;;3.75;1.10;;;12.00;78.90;;;;;;5020957;28;20041;-78
2022/11/23 09:16:53;;;;;;;3.00;1.10;;;12.00;78.80;;;;;;5020626;28;20037;-80
2022/11/23 09:19:18;;;;;;;3.03;1.00;;;12.00;78.80;;;;;;5034148;28;20505;-78
2022/11/23 09:21:44;;;;;;;4.00;1.10;;;12.10;78.80;;;;;;5025817;28;20069;-77
2022/11/23 09:24:11;;;;;;;2.15;1.27;;;12.10;78.70;;;;;;4999545;28;20482;-78
2022/11/23 09:26:37;;;;;;;3.08;1.10;;;12.20;78.70;;;;;;5032787;28;20029;-80
2022/11/23 09:29:07;;;;;;;3.63;1.30;;;12.10;78.60;;;;;;5007484;28;20302;-78
2022/11/23 09:31:33;;;;;;;3.25;1.27;;;12.10;78.50;;;;;;5016275;28;20057;-78
2022/11/23 09:33:58;;;;;;;2.70;1.17;;;12.10;78.40;;;;;;5034971;28;20061;-78
2022/11/23 09:36:24;;;;;;;2.63;1.10;;;12.10;78.40;;;;;;5035785;28;20033;-79
2022/11/23 09:38:50;;;;;;;2.42;1.10;;;12.10;78.40;;;;;;5016739;28;20045;-78
2022/11/23 09:41:24;;;;;;;3.60;1.35;;;12.10;78.50;;;;;;5016166;28;20493;-78
2022/11/23 09:43:53;;;;;;;3.28;1.23;;;12.10;78.50;;;;;;5035817;28;20097;-77
2022/11/23 09:46:31;;;;;;;2.50;1.10;;;12.10;78.60;;;;;;5034082;28;20112;-78
2022/11/23 09:49:08;;;;;;;2.33;1.13;;;12.10;78.70;;;;;;5032456;28;20478;-77
2022/11/23 09:51:37;;;;;;;3.33;1.35;;;12.00;78.70;;;;;;5032382;28;20026;-79
2022/11/23 09:54:30;;;;;;;3.10;1.10;;;12.00;78.70;;;;;;5016565;28;20029;-79
2022/11/23 09:56:56;;;;;;;2.90;1.20;;;12.00;78.80;;;;;;5037346;28;20155;-82
2022/11/23 09:59:30;;;;;;;5.47;1.30;;;12.10;78.90;;;;;;5020806;28;20029;-82
2022/11/23 10:01:59;;;;;;;4.85;1.23;;;12.00;78.90;;;;;;5021561;28;20029;-81
2022/11/23 10:04:28;;;;;;;4.28;1.20;;;12.00;78.90;;;;;;5016810;28;20017;-79
2022/11/23 10:07:24;;;;;;;5.00;1.48;;;12.10;78.90;;;;;;5036676;28;20449;-79
2022/11/23 10:09:59;;;;;;;4.00;1.50;;;11.90;78.80;;;;;;5037290;28;20080;-81
2022/11/23 10:12:50;;;;;;;5.13;1.38;;;12.10;78.90;;;;;;5038026;28;20044;-80
2022/11/23 10:15:36;;;;;;;4.95;1.40;;;12.10;78.90;;;;;;5020846;28;20049;-80
2022/11/23 10:18:38;;;;;;;7.10;1.60;;;12.10;78.80;;;;;;5018759;28;20509;-81
2022/11/23 10:21:22;;;;;;;7.13;2.08;;;12.10;78.70;;;;;;5037418;28;20053;-81
2022/11/23 10:23:58;;;;;;;6.93;1.63;;;12.20;78.50;;;;;;5020044;28;20017;-81
2022/11/23 10:26:37;;;;;;;5.55;1.92;;;12.20;78.50;;;;;;5016549;28;20036;-79
2022/11/23 10:29:19;;;;;;;8.60;1.70;;;12.30;78.30;;;;;;5035911;28;20376;-82
2022/11/23 10:31:47;;;;;;;8.00;1.75;;;12.40;78.20;;;;;;5018678;28;20029;-80
2022/11/23 10:34:48;;;;;;;5.90;1.80;;;12.50;77.90;;;;;;5037146;28;20033;-80
2022/11/23 10:37:15;;;;;;;6.28;1.92;;;12.60;77.50;;;;;;5036858;28;20083;-78
2022/11/23 10:39:40;;;;;;;4.35;1.70;;;12.50;77.10;;;;;;5036147;28;20439;-80
2022/11/23 10:42:16;;;;;;;10.23;2.00;;;12.70;77.00;;;;;;5018348;28;20029;-80
2022/11/23 10:44:43;;;;;;;5.78;1.75;;;12.70;77.00;;;;;;5036697;28;20071;-80
2022/11/23 10:47:08;;;;;;;5.57;1.63;;;12.80;77.00;;;;;;5036196;28;20025;-80
2022/11/23 10:49:34;;;;;;;7.00;1.90;;;12.80;76.80;;;;;;5035788;28;20044;-78
2022/11/23 10:52:29;;;;;;;6.20;1.80;;;12.80;76.70;;;;;;5036027;28;20100;-79
2022/11/23 10:54:57;;;;;;;5.35;1.70;;;12.80;76.70;;;;;;5017832;28;20029;-81
2022/11/23 10:57:35;;;;;;;4.00;1.52;;;12.90;76.50;;;;;;5017744;28;20051;-80
2022/11/23 11:00:17;;;;;;;7.10;2.03;;;12.90;76.20;;;;;;5016482;28;20064;-80
2022/11/23 11:02:48;;;;;;;5.38;1.98;;;13.00;76.00;;;;;;5016264;28;20032;-80
2022/11/23 11:05:33;;;;;;;5.10;1.60;;;13.10;76.00;;;;;;5017325;28;20048;-80
2022/11/23 11:08:15;;;;;;;7.93;2.15;;;13.10;75.90;;;;;;5017259;28;20063;-80
2022/11/23 11:10:42;;;;;;;5.00;1.75;;;13.20;75.40;;;;;;5017350;28;20029;-80
2022/11/23 11:13:31;;;;;;;4.28;1.60;;;13.20;75.20;;;;;;5035126;28;20028;-80
2022/11/23 11:16:01;;;;;;;4.50;1.60;;;13.30;75.00;;;;;;5015790;28;20029;-79
2022/11/23 11:18:32;;;;;;;5.43;1.73;;;13.40;74.90;;;;;;5035546;28;20033;-81
2022/11/23 11:21:04;;;;;;;6.15;1.77;;;13.40;74.70;;;;;;5034130;28;20014;-78
2022/11/23 11:23:32;;;;;;;5.32;2.05;;;13.40;74.70;;;;;;5015657;28;20497;-79
2022/11/23 11:26:07;;;;;;;3.90;1.77;;;13.50;74.70;;;;;;5033444;28;20023;-78
2022/11/23 11:28:39;;;;;;;5.65;2.00;;;13.50;74.70;;;;;;5015702;28;20040;-77
2022/11/23 11:31:17;;;;;;;;;;;13.60;74.30;;;;;;5033815;28;20057;-79
2022/11/23 11:33:52;;;;;;;5.53;1.90;;;13.60;74.10;;;;;;5014996;28;19915;-79
2022/11/23 11:36:20;;;;;;;5.32;1.77;;;13.50;74.00;;;;;;5015686;28;20036;-78
2022/11/23 11:38:49;;;;;;;4.40;1.60;;;13.50;74.40;;;;;;5016555;28;20057;-79
2022/11/23 11:41:23;;;;;;;5.22;1.63;;;13.50;74.40;;;;;;5015346;28;20137;-80
2022/11/23 11:43:56;;;;;;;3.50;1.60;;;13.40;74.40;;;;;;5014218;28;20390;-79
2022/11/23 11:46:30;;;;;;;7.20;1.90;;;13.40;74.60;;;;;;5022845;28;20029;-79
2022/11/23 11:49:04;;;;;;;5.65;1.58;;;13.40;74.90;;;;;;5032199;28;20017;-79
2022/11/23 11:51:39;;;;;;;3.45;1.48;;;13.40;75.10;;;;;;5014407;28;20029;-79
2022/11/23 11:54:18;;;;;;;4.60;1.73;;;13.30;75.20;;;;;;5015888;28;20026;-76
2022/11/23 11:56:51;;;;;;;3.95;1.50;;;13.20;75.30;;;;;;5016822;28;20029;-80
2022/11/23 11:59:25;;;;;;;3.58;1.55;;;13.20;75.60;;;;;;5016675;28;20033;-77
2022/11/23 12:02:16;;;;;;;4.88;1.73;;;13.10;75.70;;;;;;4996028;28;20158;-80
2022/11/23 12:05:00;;;;;;;3.13;1.55;;;13.10;75.90;;;;;;5014583;28;20025;-80
2022/11/23 12:07:33;;;;;;;3.53;1.50;;;13.10;75.90;;;;;;5011999;28;20385;-80
2022/11/23 12:10:16;;;;;;;4.50;1.45;;;13.10;75.80;;;;;;5030287;28;20108;-79
2022/11/23 12:12:41;;;;;;;3.80;1.40;;;13.20;75.80;;;;;;5015240;28;20580;-78
2022/11/23 12:15:17;;;;;;;3.25;1.50;;;13.20;76.20;;;;;;5013173;28;20021;-80
2022/11/23 12:17:55;;;;;;;2.72;1.23;;;13.20;75.70;;;;;;5032936;28;20037;-79
2022/11/23 12:20:31;;;;;;;5.95;1.85;;;13.20;76.20;;;;;;5032013;28;20031;-79
2022/11/23 12:23:02;;;;;;;2.60;1.30;;;13.20;75.60;;;;;;5015617;28;20034;-79
2022/11/23 12:25:35;;;;;;;4.47;1.40;;;13.30;75.70;;;;;;5010708;28;20017;-79
2022/11/23 12:28:16;;;;;;;4.88;1.45;;;13.20;75.70;;;;;;5019702;28;20072;-80
2022/11/23 12:31:05;;;;;;;4.40;1.50;;;13.20;75.80;;;;;;5022896;28;20022;-81
2022/11/23 12:33:59;;;;;;;4.15;1.70;;;13.20;75.80;;;;;;5022681;28;20040;-80
2022/11/23 12:36:43;;;;;;;3.78;1.58;;;13.10;75.90;;;;;;5015908;28;20030;-81
2022/11/23 12:39:42;;;;;;;3.58;1.40;;;13.10;76.10;;;;;;5015881;28;20081;-80
2022/11/23 12:42:30;;;;;;;4.00;1.60;;;13.10;76.20;;;;;;5032496;28;20075;-79
2022/11/23 12:45:14;;;;;;;3.60;1.40;;;13.20;76.00;;;;;;5022033;28;20106;-80
2022/11/23 12:47:52;;;;;;;5.35;1.45;;;13.20;76.30;;;;;;5026945;28;20065;-80
2022/11/23 12:50:26;;;;;;;3.95;1.50;;;13.20;75.90;;;;;;5026846;28;20018;-79
2022/11/23 12:53:02;;;;;;;5.30;1.50;;;13.20;76.10;;;;;;4999297;28;20041;-79
2022/11/23 12:55:46;;;;;;;4.35;1.40;;;13.30;75.90;;;;;;4997399;28;20030;-81
2022/11/23 12:58:17;;;;;;;3.65;1.30;;;13.20;75.90;;;;;;4996961;28;20096;-79